Time;durP1;ratioP1;P1;durP2;ratioP2;P2;SDS_P1;SDS_P2;PMS_P1;PMS_P2;Temp;Humidity;BMP_temperature;BMP_pressure;BME280_temperature;BME280_humidity;BME280_pressure;Samples;Min_cycle;Max_cycle;Signal;HPM_P1;HPM_P2
2021/09/01 00:03:18;;;;;;;24.48;10.05;;;;;;;15.09;85.45;102443.50;10137493;28;20038;-70
2021/09/01 00:08:15;;;;;;;24.77;10.85;;;;;;;15.06;85.71;102455.13;10137140;28;20042;-70
2021/09/01 00:13:12;;;;;;;24.05;9.95;;;;;;;15.01;85.88;102456.03;10137960;28;20073;-69
2021/09/01 00:18:08;;;;;;;30.20;10.63;;;;;;;15.12;85.88;102467.69;10135885;28;20556;-69
2021/09/01 00:23:05;;;;;;;25.27;11.02;;;;;;;15.07;85.93;102462.28;10136627;28;20096;-68
2021/09/01 00:28:01;;;;;;;21.58;10.07;;;;;;;15.12;85.72;102467.69;10132673;28;20109;-69
2021/09/01 00:32:58;;;;;;;27.02;10.45;;;;;;;15.03;85.83;102473.06;10132424;28;20078;-70
2021/09/01 00:37:54;;;;;;;21.67;10.57;;;;;;;14.97;85.95;102473.47;10142314;28;20073;-70
2021/09/01 00:42:50;;;;;;;28.70;11.40;;;;;;;14.90;86.15;102474.72;10124466;28;20475;-70
2021/09/01 00:47:47;;;;;;;20.77;9.02;;;;;;;14.90;85.91;102482.16;10136324;28;20050;-68
2021/09/01 00:52:44;;;;;;;26.08;10.30;;;;;;;14.98;85.73;102469.63;10140572;28;20100;-68
2021/09/01 00:57:41;;;;;;;29.90;10.30;;;;;;;15.02;86.20;102476.16;10135141;28;20648;-68
2021/09/01 01:02:38;;;;;;;23.70;9.80;;;;;;;15.02;85.92;102471.47;10137000;28;20038;-68
2021/09/01 01:07:35;;;;;;;22.38;10.25;;;;;;;14.90;85.38;102474.72;10146617;28;20052;-69
2021/09/01 01:12:32;;;;;;;28.02;11.73;;;;;;;14.85;85.89;102477.56;10134028;28;20054;-68
2021/09/01 01:17:29;;;;;;;25.63;11.50;;;;;;;14.83;85.51;102477.06;10134226;28;20042;-69
2021/09/01 01:22:26;;;;;;;22.77;11.02;;;;;;;14.84;85.44;102481.44;10140306;28;20070;-69
2021/09/01 01:27:25;;;;;;;22.50;10.70;;;;;;;14.86;85.57;102484.69;10140386;28;20103;-70
2021/09/01 01:32:22;;;;;;;21.10;10.43;;;;;;;14.92;85.36;102483.50;10135691;28;20503;-69
2021/09/01 01:37:19;;;;;;;25.45;10.27;;;;;;;14.91;84.96;102481.03;10140854;28;20042;-68
2021/09/01 01:42:15;;;;;;;22.45;10.20;;;;;;;14.86;84.75;102490.22;10137244;28;20039;-71
2021/09/01 01:47:12;;;;;;;23.42;10.13;;;;;;;14.78;84.84;102488.13;10142125;28;20046;-71
2021/09/01 01:52:08;;;;;;;27.45;10.57;;;;;;;14.78;85.40;102504.66;10141322;28;20547;-71
2021/09/01 01:57:05;;;;;;;19.50;8.85;;;;;;;14.88;85.27;102496.22;10151095;28;20046;-71
2021/09/01 02:02:01;;;;;;;27.20;9.38;;;;;;;14.89;85.14;102495.09;10145923;28;20081;-71
2021/09/01 02:06:58;;;;;;;21.42;9.05;;;;;;;14.87;85.11;102491.03;10137314;28;20560;-70
2021/09/01 02:11:54;;;;;;;19.00;8.48;;;;;;;14.82;84.17;102491.13;10136666;28;20046;-70
2021/09/01 02:16:51;;;;;;;23.05;10.63;;;;;;;14.73;84.71;102485.50;10139944;28;20105;-70
2021/09/01 02:21:47;;;;;;;27.42;8.85;;;;;;;14.67;85.89;102481.22;10140120;28;20493;-70
2021/09/01 02:26:43;;;;;;;23.52;8.25;;;;;;;14.70;85.95;102488.84;10143331;28;20042;-70
2021/09/01 02:31:40;;;;;;;24.55;8.65;;;;;;;14.74;85.72;102487.13;10138439;28;20065;-70
2021/09/01 02:36:37;;;;;;;20.42;8.30;;;;;;;14.73;85.38;102477.22;10134881;28;20552;-70
2021/09/01 02:41:33;;;;;;;24.50;9.13;;;;;;;14.82;85.18;102480.09;10139948;28;20066;-69
2021/09/01 02:46:30;;;;;;;26.88;9.27;;;;;;;14.77;85.35;102472.75;10145574;28;20054;-69
2021/09/01 02:51:26;;;;;;;23.98;9.38;;;;;;;14.78;85.17;102476.31;10133871;28;20053;-70
2021/09/01 02:56:22;;;;;;;23.77;8.82;;;;;;;14.72;85.27;102472.84;10149019;28;20533;-71
2021/09/01 03:01:19;;;;;;;22.92;8.60;;;;;;;14.66;85.17;102466.59;10135796;28;20057;-72
2021/09/01 03:06:16;;;;;;;27.00;9.82;;;;;;;14.64;84.87;102454.28;10139936;28;20050;-72
2021/09/01 03:11:13;;;;;;;24.35;9.48;;;;;;;14.58;85.86;102461.00;10144408;28;20129;-71
2021/09/01 03:16:09;;;;;;;21.08;8.75;;;;;;;14.57;86.55;102464.84;10145634;28;20089;-70
2021/09/01 03:21:06;;;;;;;22.27;10.15;;;;;;;14.56;86.34;102463.25;10146646;28;20046;-70
2021/09/01 03:26:03;;;;;;;21.52;9.52;;;;;;;14.72;85.76;102467.34;10146623;28;20097;-70
2021/09/01 03:31:00;;;;;;;24.25;10.73;;;;;;;14.69;86.05;102467.94;10149254;28;20125;-68
2021/09/01 03:35:56;;;;;;;29.80;11.40;;;;;;;14.61;85.75;102476.91;10140641;28;20042;-68
2021/09/01 03:40:53;;;;;;;22.27;9.80;;;;;;;14.64;85.94;102481.78;10146294;28;20046;-68
2021/09/01 03:45:54;;;;;;;25.05;11.88;;;;;;;14.65;85.21;102477.94;10134304;28;20047;-67
2021/09/01 03:50:52;;;;;;;23.92;9.93;;;;;;;14.60;85.95;102480.78;10122395;28;20050;-65
2021/09/01 03:55:49;;;;;;;21.40;10.77;;;;;;;14.61;86.30;102480.47;10144961;28;20046;-65
2021/09/01 04:00:46;;;;;;;27.13;12.48;;;;;;;14.57;86.06;102475.88;10140002;28;20416;-65
2021/09/01 04:05:42;;;;;;;25.23;13.15;;;;;;;14.58;86.22;102483.03;10141767;28;20050;-66
2021/09/01 04:10:39;;;;;;;24.88;14.15;;;;;;;14.48;86.43;102487.56;10139439;28;20065;-65
2021/09/01 04:15:36;;;;;;;27.55;13.20;;;;;;;14.46;86.79;102481.53;10137725;28;20046;-66
2021/09/01 04:20:32;;;;;;;21.50;13.15;;;;;;;14.48;86.40;102483.97;10138595;28;20782;-66
2021/09/01 04:25:29;;;;;;;23.63;13.00;;;;;;;14.47;86.88;102485.91;10138302;28;20109;-66
2021/09/01 04:30:25;;;;;;;28.65;16.70;;;;;;;14.38;87.73;102484.97;10132045;28;20117;-66
2021/09/01 04:35:21;;;;;;;26.40;14.20;;;;;;;14.41;88.21;102489.03;10119323;28;20525;-66
2021/09/01 04:40:18;;;;;;;23.98;13.00;;;;;;;14.47;87.81;102493.34;10136691;28;20105;-67
2021/09/01 04:45:14;;;;;;;22.52;11.35;;;;;;;14.47;88.35;102494.16;10133614;28;20611;-65
2021/09/01 04:50:11;;;;;;;29.50;13.38;;;;;;;14.47;88.15;102499.66;10135210;28;20129;-66
2021/09/01 04:55:09;;;;;;;36.42;15.93;;;;;;;14.37;88.29;102494.34;10142019;28;20138;-65
2021/09/01 05:00:08;;;;;;;32.00;15.40;;;;;;;14.39;88.42;102503.13;10136187;28;20142;-67
2021/09/01 05:05:05;;;;;;;40.50;18.40;;;;;;;14.36;88.70;102509.19;10139179;28;20093;-66
2021/09/01 05:10:03;;;;;;;30.60;15.02;;;;;;;14.44;89.15;102511.28;10146277;28;20050;-66
2021/09/01 05:14:59;;;;;;;44.15;18.52;;;;;;;14.35;89.26;102515.84;10144172;28;20104;-66
2021/09/01 05:19:56;;;;;;;39.25;18.08;;;;;;;14.44;88.96;102521.47;10147111;28;20500;-67
2021/09/01 05:25:06;;;;;;;42.95;18.00;;;;;;;14.46;88.99;102525.56;10151226;28;20492;-67
2021/09/01 05:30:10;;;;;;;44.88;18.13;;;;;;;14.55;88.95;102535.91;10139051;28;20090;-67
2021/09/01 05:35:07;;;;;;;;;;;;;;;14.50;89.00;102543.13;10136550;28;20082;-67
2021/09/01 05:40:05;;;;;;;41.45;18.35;;;;;;;14.48;88.79;102545.34;10144752;28;20292;-66
2021/09/01 05:45:07;;;;;;;41.53;19.73;;;;;;;14.44;88.56;102549.00;10141331;28;20055;-67
2021/09/01 05:50:04;;;;;;;44.38;18.27;;;;;;;14.48;88.58;102550.84;10142253;28;20480;-66
2021/09/01 05:55:04;;;;;;;49.08;19.50;;;;;;;14.45;88.43;102554.19;10141200;28;20066;-65
2021/09/01 06:00:07;;;;;;;31.20;15.68;;;;;;;14.33;88.01;102553.84;10147153;28;20127;-67
2021/09/01 06:05:05;;;;;;;29.98;14.75;;;;;;;14.29;88.45;102547.28;10147968;28;20038;-66
2021/09/01 06:10:03;;;;;;;27.27;14.25;;;;;;;14.32;88.11;102557.72;10151624;28;20519;-67
2021/09/01 06:15:00;;;;;;;26.85;15.98;;;;;;;14.40;88.45;102554.28;10146733;28;20050;-67
2021/09/01 06:19:57;;;;;;;33.00;14.85;;;;;;;14.38;88.81;102562.00;10142285;28;20492;-68
2021/09/01 06:24:53;;;;;;;36.08;16.13;;;;;;;14.47;88.15;102565.72;10144786;28;20097;-67
2021/09/01 06:29:50;;;;;;;38.85;19.05;;;;;;;14.48;88.37;102564.63;10134901;28;20042;-66
2021/09/01 06:34:46;;;;;;;31.65;15.93;;;;;;;14.48;88.27;102572.88;10135328;28;20086;-66
2021/09/01 06:39:43;;;;;;;23.90;14.57;;;;;;;14.55;88.61;102566.19;10142655;28;20074;-67
2021/09/01 06:44:39;;;;;;;24.63;13.65;;;;;;;14.58;88.05;102573.88;10144910;28;20042;-66
2021/09/01 06:49:36;;;;;;;27.17;12.57;;;;;;;14.48;87.58;102570.13;10142239;28;20157;-67
2021/09/01 06:54:32;;;;;;;25.88;13.57;;;;;;;14.64;87.80;102567.13;10146309;28;20085;-67
2021/09/01 06:59:28;;;;;;;21.20;11.30;;;;;;;14.68;88.64;102570.94;10146688;28;20122;-66
2021/09/01 07:04:25;;;;;;;25.02;14.18;;;;;;;14.68;87.65;102576.44;10141724;28;20509;-66
2021/09/01 07:09:21;;;;;;;20.95;12.00;;;;;;;14.72;86.92;102572.78;10130015;28;20058;-67
2021/09/01 07:14:18;;;;;;;25.88;13.50;;;;;;;14.75;87.14;102576.88;10141313;28;20578;-67
2021/09/01 07:19:14;;;;;;;27.73;14.35;;;;;;;14.81;86.80;102569.34;10137717;28;20046;-65
2021/09/01 07:24:11;;;;;;;25.00;13.95;;;;;;;14.85;86.34;102575.88;10140135;28;20078;-67
2021/09/01 07:29:07;;;;;;;22.40;14.43;;;;;;;14.90;86.05;102573.88;10135561;28;20046;-67
2021/09/01 07:34:04;;;;;;;36.97;19.02;;;;;;;14.97;85.97;102575.38;10144742;28;20109;-65
2021/09/01 07:39:00;;;;;;;37.50;19.00;;;;;;;14.99;86.30;102575.91;10127618;28;20420;-67
2021/09/01 07:43:57;;;;;;;24.38;14.57;;;;;;;15.11;85.56;102579.00;10134097;28;20100;-67
2021/09/01 07:48:57;;;;;;;27.60;16.05;;;;;;;15.23;85.25;102578.53;10139249;28;20101;-66
2021/09/01 07:53:54;;;;;;;27.88;17.38;;;;;;;15.42;85.47;102589.47;10138363;28;20074;-67
2021/09/01 07:58:50;;;;;;;28.35;16.30;;;;;;;15.48;85.27;102602.00;10140307;28;20133;-67
2021/09/01 08:03:47;;;;;;;22.45;13.68;;;;;;;15.57;84.22;102600.16;10138328;28;20993;-66
2021/09/01 08:08:43;;;;;;;19.30;11.88;;;;;;;15.71;84.12;102595.53;10145622;28;20125;-65
2021/09/01 08:13:40;;;;;;;17.98;11.70;;;;;;;15.87;84.30;102607.03;10144027;28;20093;-67
2021/09/01 08:18:36;;;;;;;19.52;12.50;;;;;;;16.00;83.73;102599.88;10142968;28;20046;-68
2021/09/01 08:23:33;;;;;;;18.55;11.20;;;;;;;16.10;83.53;102609.88;10143459;28;20085;-67
2021/09/01 08:28:29;;;;;;;19.92;12.25;;;;;;;16.24;83.96;102609.84;10142274;28;20094;-67
2021/09/01 08:33:26;;;;;;;17.23;9.80;;;;;;;16.40;83.11;102608.34;10142911;28;20666;-67
2021/09/01 08:38:23;;;;;;;18.38;11.52;;;;;;;16.47;82.57;102605.19;10142127;28;20855;-66
2021/09/01 08:43:19;;;;;;;16.83;8.90;;;;;;;16.69;82.58;102604.38;10143833;28;20137;-68
2021/09/01 08:48:17;;;;;;;16.13;8.75;;;;;;;16.79;81.53;102604.16;10133718;28;20039;-67
2021/09/01 08:53:13;;;;;;;13.55;8.23;;;;;;;16.90;81.12;102600.00;10143050;28;20162;-67
2021/09/01 08:58:09;;;;;;;17.15;8.85;;;;;;;17.09;81.29;102596.22;10148992;28;20129;-66
2021/09/01 09:03:06;;;;;;;17.92;8.20;;;;;;;17.17;80.05;102599.03;10151781;28;20100;-66
2021/09/01 09:08:08;;;;;;;18.00;8.30;;;;;;;17.26;79.45;102585.22;10148446;28;20123;-66
2021/09/01 09:13:06;;;;;;;14.63;7.30;;;;;;;17.43;78.84;102585.31;10151090;28;20042;-66
2021/09/01 09:18:23;;;;;;;18.67;8.75;;;;;;;17.57;77.96;102590.75;10140065;28;20065;-66
2021/09/01 09:23:29;;;;;;;13.93;6.35;;;;;;;17.80;77.62;102588.69;10138106;28;20075;-66
2021/09/01 09:28:26;;;;;;;14.57;6.00;;;;;;;18.02;75.63;102595.28;10144655;28;20046;-66
2021/09/01 09:33:24;;;;;;;11.98;5.85;;;;;;;18.35;75.80;102597.59;10145576;28;20900;-66
2021/09/01 09:38:45;;;;;;;17.90;5.38;;;;;;;18.54;74.62;102600.03;10145325;28;20448;-67
2021/09/01 09:43:41;;;;;;;14.07;6.70;;;;;;;18.67;71.72;102594.31;10140526;28;20467;-67
2021/09/01 09:48:44;;;;;;;14.30;5.57;;;;;;;18.77;70.92;102595.16;10148965;28;20046;-68
2021/09/01 09:53:46;;;;;;;11.37;5.73;;;;;;;18.95;69.73;102605.06;10139272;28;20105;-67
2021/09/01 09:58:46;;;;;;;12.63;5.43;;;;;;;19.03;69.69;102601.47;10151747;28;20162;-68
2021/09/01 10:03:43;;;;;;;9.05;5.07;;;;;;;19.13;68.04;102597.53;10138380;28;20622;-68
2021/09/01 10:08:40;;;;;;;11.98;5.82;;;;;;;19.50;67.24;102598.69;10138494;28;20074;-68
2021/09/01 10:13:43;;;;;;;10.82;4.88;;;;;;;19.70;65.18;102602.72;10141279;28;20457;-68
2021/09/01 10:18:42;;;;;;;10.38;4.72;;;;;;;20.70;65.46;102600.19;10143701;28;20081;-68
2021/09/01 10:23:45;;;;;;;10.43;5.00;;;;;;;21.41;59.99;102601.06;10146639;28;20516;-67
2021/09/01 10:28:41;;;;;;;9.90;5.30;;;;;;;22.39;60.23;102606.53;10139293;28;20401;-68
2021/09/01 10:33:45;;;;;;;11.27;5.85;;;;;;;22.60;59.14;102605.53;10138222;28;20043;-69
2021/09/01 10:38:42;;;;;;;10.00;4.90;;;;;;;22.47;58.98;102602.78;10137260;28;20077;-68
2021/09/01 10:43:38;;;;;;;11.00;5.13;;;;;;;22.39;59.19;102592.59;10143091;28;20073;-68
2021/09/01 10:48:54;;;;;;;12.70;5.97;;;;;;;22.87;58.33;102593.53;10137931;28;20046;-67
2021/09/01 10:53:50;;;;;;;10.95;5.55;;;;;;;23.59;56.56;102595.38;10147015;28;20104;-67
2021/09/01 10:58:49;;;;;;;11.00;5.60;;;;;;;23.62;53.92;102594.66;10146952;28;20062;-69
2021/09/01 11:04:01;;;;;;;15.90;6.63;;;;;;;23.76;54.22;102594.22;10143117;28;20366;-68
2021/09/01 11:09:19;;;;;;;10.20;5.07;;;;;;;24.48;52.31;102601.38;10127514;28;20509;-68
2021/09/01 11:14:43;;;;;;;9.82;6.00;;;;;;;23.82;52.78;102591.97;10140903;28;20066;-68
2021/09/01 11:19:41;;;;;;;16.65;5.18;;;;;;;22.92;55.28;102594.44;10135721;28;20038;-68
2021/09/01 11:24:59;;;;;;;10.55;5.97;;;;;;;23.20;53.32;102595.22;10141561;28;20483;-69
2021/09/01 11:30:06;;;;;;;13.45;4.97;;;;;;;22.99;54.35;102589.09;10135735;28;20053;-69
2021/09/01 11:35:06;;;;;;;14.05;5.75;;;;;;;23.08;54.86;102592.53;10141940;28;20074;-68
2021/09/01 11:40:03;;;;;;;11.18;5.13;;;;;;;22.69;55.67;102597.81;10143948;28;20547;-68
2021/09/01 11:45:01;;;;;;;10.15;5.35;;;;;;;22.38;56.07;102593.78;10137485;28;20052;-68
2021/09/01 11:49:58;;;;;;;11.15;5.20;;;;;;;22.09;57.33;102596.84;10135273;28;20165;-68
2021/09/01 11:54:55;;;;;;;14.85;6.68;;;;;;;21.71;57.90;102592.50;10132828;28;20039;-68
2021/09/01 11:59:52;;;;;;;12.20;5.47;;;;;;;22.04;57.98;102595.91;10146768;28;20038;-67
2021/09/01 12:04:48;;;;;;;10.60;5.38;;;;;;;22.22;57.77;102590.09;10137166;28;20078;-67
2021/09/01 12:09:58;;;;;;;10.50;5.43;;;;;;;22.48;58.28;102598.81;10137812;28;20100;-68
2021/09/01 12:15:05;;;;;;;11.40;6.15;;;;;;;22.65;55.82;102588.53;10138614;28;20133;-68
2021/09/01 12:20:02;;;;;;;13.13;5.18;;;;;;;23.53;53.29;102586.50;10138501;28;20074;-68
2021/09/01 12:25:12;;;;;;;12.05;5.38;;;;;;;24.01;52.70;102592.00;10142310;28;20050;-67
2021/09/01 12:30:10;;;;;;;14.18;6.10;;;;;;;23.04;53.25;102586.03;10125579;28;20121;-67
2021/09/01 12:35:09;;;;;;;13.68;5.30;;;;;;;23.08;55.85;102581.38;10130685;28;20080;-68
2021/09/01 12:40:12;;;;;;;10.35;6.07;;;;;;;23.49;53.81;102573.63;10133810;28;20724;-66
2021/09/01 12:45:14;;;;;;;8.70;4.47;;;;;;;23.41;54.97;102571.81;10125556;28;20097;-68
2021/09/01 12:50:10;;;;;;;10.52;5.38;;;;;;;23.14;56.04;102563.19;10131721;28;20073;-68
2021/09/01 12:55:07;;;;;;;9.88;5.55;;;;;;;22.54;56.39;102567.94;10140107;28;20050;-68
2021/09/01 13:00:05;;;;;;;10.20;5.40;;;;;;;22.25;56.92;102569.88;10137996;28;20042;-66
2021/09/01 13:05:01;;;;;;;7.53;4.43;;;;;;;22.31;55.91;102565.69;10143196;28;20133;-68
2021/09/01 13:09:59;;;;;;;11.88;5.32;;;;;;;22.14;57.42;102560.38;10136956;28;20141;-66
2021/09/01 13:14:56;;;;;;;8.45;4.68;;;;;;;22.19;58.55;102551.78;10134414;28;20049;-67
2021/09/01 13:19:52;;;;;;;9.40;5.00;;;;;;;21.98;57.10;102544.41;10131556;28;20154;-67
2021/09/01 13:24:48;;;;;;;11.07;4.80;;;;;;;22.73;57.79;102542.97;10138684;28;20149;-67
2021/09/01 13:29:45;;;;;;;9.07;4.95;;;;;;;22.73;57.66;102542.16;10130157;28;20480;-66
2021/09/01 13:34:42;;;;;;;9.45;5.35;;;;;;;22.45;58.09;102549.38;10137162;28;20073;-66
2021/09/01 13:39:38;;;;;;;13.30;5.38;;;;;;;22.56;57.72;102538.53;10139902;28;20133;-67
2021/09/01 13:44:36;;;;;;;13.90;6.65;;;;;;;22.62;56.78;102544.66;10140750;28;20461;-68
2021/09/01 13:49:33;;;;;;;12.10;5.82;;;;;;;22.15;58.54;102542.50;10136145;28;20069;-67
2021/09/01 13:54:31;;;;;;;8.30;4.70;;;;;;;21.93;59.83;102541.88;10140247;28;20054;-66
2021/09/01 13:59:28;;;;;;;13.40;5.53;;;;;;;21.94;59.81;102534.34;10142328;28;20603;-67
2021/09/01 14:04:25;;;;;;;10.77;5.47;;;;;;;22.38;59.22;102529.66;10142597;28;20588;-66
2021/09/01 14:09:21;;;;;;;11.68;5.20;;;;;;;22.32;58.51;102528.28;10148053;28;20077;-67
2021/09/01 14:14:18;;;;;;;12.10;6.03;;;;;;;22.20;59.13;102517.97;10144428;28;20042;-66
2021/09/01 14:19:14;;;;;;;10.90;5.65;;;;;;;22.37;59.04;102530.00;10140794;28;20081;-66
2021/09/01 14:24:11;;;;;;;11.98;5.55;;;;;;;22.37;58.71;102525.28;10141132;28;20046;-66
2021/09/01 14:29:07;;;;;;;11.60;5.28;;;;;;;22.39;58.76;102517.34;10136554;28;20050;-67
2021/09/01 14:34:04;;;;;;;12.23;5.57;;;;;;;22.37;59.02;102522.50;10147211;28;20112;-67
2021/09/01 14:39:01;;;;;;;11.60;5.13;;;;;;;22.39;59.38;102522.13;10132955;28;20049;-67
2021/09/01 14:43:58;;;;;;;11.15;5.82;;;;;;;22.30;58.92;102519.47;10150253;28;20073;-67
2021/09/01 14:48:54;;;;;;;9.90;5.20;;;;;;;22.42;59.74;102516.66;10140078;28;20038;-68
2021/09/01 14:53:51;;;;;;;12.55;6.20;;;;;;;22.19;58.65;102523.94;10143159;28;20134;-67
2021/09/01 14:58:48;;;;;;;15.82;5.13;;;;;;;22.15;59.16;102517.44;10140845;28;20141;-66
2021/09/01 15:03:44;;;;;;;17.48;5.38;;;;;;;21.99;59.35;102518.19;10141042;28;20066;-65
2021/09/01 15:08:44;;;;;;;11.02;5.18;;;;;;;22.32;59.60;102506.00;10139515;28;20472;-66
2021/09/01 15:13:41;;;;;;;11.60;4.95;;;;;;;22.44;58.85;102514.31;10148227;28;20527;-70
2021/09/01 15:18:39;;;;;;;12.55;5.22;;;;;;;22.36;59.00;102509.72;10146573;28;20688;-67
2021/09/01 15:23:38;;;;;;;9.65;4.93;;;;;;;22.43;59.15;102501.53;10145439;28;20579;-67
2021/09/01 15:28:34;;;;;;;11.73;4.75;;;;;;;22.38;58.26;102499.03;10146432;28;20070;-66
2021/09/01 15:33:34;;;;;;;10.07;4.65;;;;;;;22.34;59.17;102517.59;10141817;28;20054;-66
2021/09/01 15:38:32;;;;;;;9.95;4.90;;;;;;;22.20;59.06;102509.63;10139611;28;20043;-66
2021/09/01 15:43:32;;;;;;;10.18;5.38;;;;;;;22.11;59.54;102505.38;10145665;28;20125;-65
2021/09/01 15:48:40;;;;;;;11.07;5.72;;;;;;;22.31;59.25;102509.16;10145448;28;22028;-67
2021/09/01 15:53:39;;;;;;;11.43;5.60;;;;;;;22.29;58.75;102497.56;10139653;28;20054;-67
2021/09/01 15:58:40;;;;;;;11.10;5.30;;;;;;;22.22;59.31;102506.53;10140940;28;20042;-66
2021/09/01 16:03:40;;;;;;;10.13;5.00;;;;;;;22.13;59.41;102515.00;10127173;28;20074;-67
2021/09/01 16:08:37;;;;;;;15.52;7.38;;;;;;;22.07;59.37;102510.84;10143590;28;20509;-68
2021/09/01 16:13:39;;;;;;;10.75;4.70;;;;;;;21.96;60.26;102510.53;10141787;28;20084;-68
2021/09/01 16:18:50;;;;;;;12.10;4.90;;;;;;;21.93;60.39;102505.69;10139801;28;20134;-68
2021/09/01 16:23:48;;;;;;;10.40;4.25;;;;;;;22.00;60.07;102510.63;10141071;28;20142;-68
2021/09/01 16:28:47;;;;;;;13.95;5.20;;;;;;;21.95;59.78;102511.69;10128255;28;20731;-68
2021/09/01 16:33:43;;;;;;;11.32;4.88;;;;;;;22.00;59.76;102511.47;10116481;28;20133;-68
2021/09/01 16:38:40;;;;;;;11.90;4.75;;;;;;;22.08;59.56;102512.47;10143284;28;20559;-68
2021/09/01 16:43:37;;;;;;;15.23;4.90;;;;;;;21.89;59.94;102521.47;10144028;28;20097;-68
2021/09/01 16:48:36;;;;;;;12.98;4.63;;;;;;;21.70;61.06;102521.25;10141998;28;20070;-68
2021/09/01 16:53:34;;;;;;;17.10;4.72;;;;;;;21.78;60.49;102517.53;10143434;28;20050;-66
2021/09/01 16:58:38;;;;;;;13.98;5.25;;;;;;;22.24;59.58;102516.16;10128392;28;20039;-68
2021/09/01 17:03:39;;;;;;;12.10;5.13;;;;;;;22.00;59.56;102516.19;10139271;28;20074;-66
2021/09/01 17:08:37;;;;;;;12.90;4.72;;;;;;;21.52;60.70;102507.59;10138947;28;20547;-68
2021/09/01 17:13:37;;;;;;;11.65;4.60;;;;;;;21.27;61.68;102511.53;10144774;28;20077;-68
2021/09/01 17:18:36;;;;;;;12.82;4.47;;;;;;;20.95;62.19;102514.06;10141518;28;20047;-68
2021/09/01 17:23:33;;;;;;;16.25;5.18;;;;;;;20.72;63.01;102513.66;10139819;28;20081;-66
2021/09/01 17:28:39;;;;;;;17.85;5.65;;;;;;;20.57;63.74;102524.28;10142375;28;20047;-68
2021/09/01 17:33:36;;;;;;;15.40;4.75;;;;;;;20.35;64.88;102528.25;10143133;28;21835;-68
2021/09/01 17:38:34;;;;;;;14.07;4.68;;;;;;;20.00;66.12;102524.13;10151257;28;20041;-68
2021/09/01 17:43:31;;;;;;;9.80;4.63;;;;;;;19.96;65.56;102533.13;10142913;28;20559;-68
2021/09/01 17:48:28;;;;;;;19.50;7.55;;;;;;;19.74;66.26;102527.91;10145301;28;20077;-68
2021/09/01 17:53:26;;;;;;;16.20;5.93;;;;;;;19.64;66.33;102536.59;10140468;28;20156;-68
2021/09/01 17:58:22;;;;;;;16.92;6.57;;;;;;;19.40;67.20;102542.75;10137844;28;20051;-68
2021/09/01 18:03:19;;;;;;;21.60;7.90;;;;;;;19.36;67.58;102545.41;10134266;28;20077;-68
2021/09/01 18:08:16;;;;;;;17.27;4.78;;;;;;;19.24;67.97;102553.59;10136456;28;20062;-68
2021/09/01 18:13:12;;;;;;;11.82;5.68;;;;;;;19.27;68.07;102552.94;10146944;28;20085;-68
2021/09/01 18:18:10;;;;;;;13.68;5.18;;;;;;;19.10;68.93;102556.59;10146102;28;20478;-66
2021/09/01 18:23:06;;;;;;;13.70;6.05;;;;;;;19.16;68.51;102560.00;10135040;28;20054;-66
2021/09/01 18:28:03;;;;;;;12.48;5.75;;;;;;;18.98;69.11;102571.13;10141798;28;20133;-68
2021/09/01 18:33:00;;;;;;;15.85;5.57;;;;;;;18.90;69.14;102574.75;10136145;28;20089;-68
2021/09/01 18:37:56;;;;;;;18.08;6.70;;;;;;;18.80;69.20;102580.63;10139562;28;20035;-68
2021/09/01 18:42:58;;;;;;;20.30;6.03;;;;;;;18.65;69.56;102579.97;10134207;28;20132;-69
2021/09/01 18:47:55;;;;;;;19.42;7.20;;;;;;;18.57;69.82;102594.66;10135649;28;20169;-68
2021/09/01 18:52:52;;;;;;;13.55;5.20;;;;;;;18.43;70.33;102591.25;10148367;28;20092;-68
2021/09/01 18:57:50;;;;;;;14.07;5.80;;;;;;;18.34;69.80;102595.97;10144452;28;20034;-68
2021/09/01 19:02:50;;;;;;;15.57;5.13;;;;;;;18.30;70.28;102596.59;10123224;28;20042;-68
2021/09/01 19:08:11;;;;;;;18.27;6.00;;;;;;;18.16;69.73;102589.59;10141111;28;20044;-67
2021/09/01 19:13:08;;;;;;;16.50;5.88;;;;;;;18.05;70.01;102605.69;10134880;28;20132;-67
2021/09/01 19:18:08;;;;;;;18.15;5.10;;;;;;;17.98;69.98;102608.94;10140739;28;20042;-68
2021/09/01 19:23:06;;;;;;;15.35;5.30;;;;;;;17.87;70.17;102604.88;10145709;28;20598;-67
2021/09/01 19:28:04;;;;;;;17.08;7.15;;;;;;;17.78;70.28;102604.81;10134669;28;20093;-67
2021/09/01 19:33:01;;;;;;;14.15;4.40;;;;;;;17.78;70.49;102601.22;10141053;28;20073;-66
2021/09/01 19:37:58;;;;;;;13.88;4.78;;;;;;;17.69;70.91;102598.44;10136074;28;20121;-68
2021/09/01 19:42:54;;;;;;;18.42;5.18;;;;;;;17.65;71.40;102597.44;10141458;28;20074;-68
2021/09/01 19:47:51;;;;;;;18.40;6.53;;;;;;;17.58;72.02;102608.16;10140480;28;20137;-67
2021/09/01 19:52:51;;;;;;;18.50;5.53;;;;;;;17.52;72.30;102603.88;10134212;28;20046;-69
2021/09/01 19:57:52;;;;;;;17.38;7.10;;;;;;;17.44;72.88;102600.78;10133400;28;20070;-67
2021/09/01 20:02:49;;;;;;;13.98;5.25;;;;;;;17.36;73.03;102601.56;10128568;28;20424;-68
2021/09/01 20:07:48;;;;;;;21.75;6.07;;;;;;;17.36;73.64;102589.66;10142133;28;20047;-68
2021/09/01 20:12:45;;;;;;;17.15;5.22;;;;;;;17.23;74.31;102589.47;10137948;28;20050;-68
2021/09/01 20:17:41;;;;;;;15.60;5.18;;;;;;;17.16;74.97;102607.63;10136849;28;20703;-68
2021/09/01 20:22:39;;;;;;;20.60;5.68;;;;;;;17.13;74.97;102602.75;10136658;28;20133;-67
2021/09/01 20:27:35;;;;;;;16.45;5.68;;;;;;;17.08;75.52;102606.47;10138401;28;20081;-70
2021/09/01 20:32:32;;;;;;;17.55;6.88;;;;;;;17.05;75.64;102612.59;10137164;28;20081;-71
2021/09/01 20:37:30;;;;;;;16.92;6.50;;;;;;;16.90;76.51;102608.28;10135996;28;20069;-71
2021/09/01 20:42:28;;;;;;;19.60;6.38;;;;;;;16.76;77.19;102613.84;10133207;28;20074;-71
2021/09/01 20:47:37;;;;;;;22.75;7.60;;;;;;;16.76;77.13;102621.34;10123494;28;20093;-68
2021/09/01 20:52:37;;;;;;;24.30;6.60;;;;;;;16.72;77.38;102617.56;10144177;28;20073;-69
2021/09/01 20:57:36;;;;;;;15.63;6.78;;;;;;;16.66;77.59;102624.31;10154557;28;20463;-69
2021/09/01 21:02:34;;;;;;;19.23;6.45;;;;;;;16.66;77.34;102622.38;10152517;28;21085;-69
2021/09/01 21:07:30;;;;;;;19.08;7.03;;;;;;;16.68;77.17;102619.31;10145402;28;20051;-69
2021/09/01 21:12:27;;;;;;;20.75;7.40;;;;;;;16.65;77.16;102619.94;10151770;28;20058;-69
2021/09/01 21:17:25;;;;;;;19.20;7.50;;;;;;;16.58;77.44;102625.91;10147908;28;20092;-69
2021/09/01 21:22:25;;;;;;;16.17;6.53;;;;;;;16.47;77.91;102624.50;10153608;28;20108;-69
2021/09/01 21:27:23;;;;;;;19.88;8.60;;;;;;;16.34;78.31;102631.72;10148889;28;20078;-69
2021/09/01 21:32:23;;;;;;;18.20;6.82;;;;;;;16.35;78.48;102622.28;10147096;28;20097;-68
2021/09/01 21:37:24;;;;;;;26.05;8.13;;;;;;;16.25;78.84;102622.53;10141983;28;20477;-70
2021/09/01 21:42:20;;;;;;;21.80;8.65;;;;;;;16.11;79.46;102631.66;10151385;28;20082;-68
2021/09/01 21:47:18;;;;;;;23.45;7.25;;;;;;;15.98;79.69;102624.19;10145628;28;20390;-68
2021/09/01 21:52:16;;;;;;;21.23;7.32;;;;;;;15.96;79.90;102626.44;10140403;28;20042;-68
2021/09/01 21:57:12;;;;;;;24.13;8.70;;;;;;;15.92;80.01;102630.94;10143151;28;20050;-68
2021/09/01 22:02:09;;;;;;;25.30;7.55;;;;;;;15.96;80.05;102631.97;10151057;28;20084;-68
2021/09/01 22:07:05;;;;;;;23.33;7.32;;;;;;;15.90;80.09;102627.69;10141470;28;20412;-68
2021/09/01 22:12:02;;;;;;;20.85;7.60;;;;;;;15.92;79.98;102625.41;10139374;28;20042;-68
2021/09/01 22:16:59;;;;;;;17.73;8.57;;;;;;;15.89;80.71;102632.38;10148024;28;20050;-68
2021/09/01 22:21:55;;;;;;;20.60;7.85;;;;;;;15.84;80.77;102623.38;10140492;28;20416;-69
2021/09/01 22:26:52;;;;;;;24.17;7.65;;;;;;;15.75;81.39;102631.56;10143048;28;20136;-67
2021/09/01 22:31:48;;;;;;;25.15;9.55;;;;;;;15.73;81.57;102626.38;10147733;28;20543;-68